createdAt,value
2016-06-29T00:00:55.043Z,1011.29
2016-06-29T00:01:54.991Z,1011.29
2016-06-29T00:02:54.971Z,1011.21
2016-06-29T00:03:54.961Z,1011.19
2016-06-29T00:04:54.946Z,1011.16
2016-06-29T00:05:54.929Z,1011.14
2016-06-29T00:06:54.918Z,1011.13
2016-06-29T00:07:54.906Z,1011.08
2016-06-29T00:08:54.891Z,1011.09
2016-06-29T00:09:54.874Z,1011.09
2016-06-29T00:10:54.860Z,1011.14
2016-06-29T00:11:54.845Z,1011.15
2016-06-29T00:12:54.826Z,1011.11
2016-06-29T00:13:54.818Z,1011.1
2016-06-29T00:14:54.807Z,1011.13
2016-06-29T00:15:54.787Z,1011.07
2016-06-29T00:16:54.770Z,1011.11
2016-06-29T00:17:54.760Z,1011.08
2016-06-29T00:18:54.739Z,1011.1
2016-06-29T00:19:54.733Z,1011.08
2016-06-29T00:20:54.717Z,1011.07
2016-06-29T00:21:54.698Z,1011.08
2016-06-29T00:22:54.684Z,1011.06
2016-06-29T00:23:54.676Z,1011.1
2016-06-29T00:24:54.657Z,1010.99
2016-06-29T00:25:54.646Z,1011.01
2016-06-29T00:26:54.631Z,1011.04
2016-06-29T00:27:54.614Z,1011.05
2016-06-29T00:28:54.602Z,1011.06
2016-06-29T00:29:54.586Z,1011.11
2016-06-29T00:30:54.570Z,1011.01
2016-06-29T00:31:54.563Z,1010.96
2016-06-29T00:32:54.564Z,1011.03
2016-06-29T00:33:54.527Z,1011.04
2016-06-29T00:34:54.514Z,1010.97
2016-06-29T00:35:54.501Z,1010.96
2016-06-29T00:36:54.488Z,1010.97
2016-06-29T00:37:54.470Z,1011
2016-06-29T00:38:54.455Z,1010.99
2016-06-29T00:39:54.447Z,1010.97
2016-06-29T00:40:54.434Z,1010.97
2016-06-29T00:41:54.414Z,1011
2016-06-29T00:42:54.409Z,1010.96
2016-06-29T00:43:54.386Z,1010.9
2016-06-29T00:44:54.368Z,1010.87
2016-06-29T00:45:54.356Z,1010.92
2016-06-29T00:46:54.343Z,1010.91
2016-06-29T00:47:54.325Z,1010.87
2016-06-29T00:48:54.311Z,1010.86
2016-06-29T00:49:54.302Z,1010.92
2016-06-29T00:50:54.282Z,1010.84
2016-06-29T00:51:54.270Z,1010.86
2016-06-29T00:52:54.254Z,1010.82
2016-06-29T00:53:54.239Z,1010.82
2016-06-29T00:54:54.226Z,1010.9
2016-06-29T00:55:54.216Z,1010.85
2016-06-29T00:56:54.198Z,1010.88
2016-06-29T00:57:54.183Z,1010.94
2016-06-29T00:58:54.170Z,1010.9
2016-06-29T00:59:54.150Z,1010.84
2016-06-29T01:00:54.142Z,1010.91
2016-06-29T01:01:54.134Z,1010.92
2016-06-29T01:02:54.113Z,1010.85
2016-06-29T01:03:54.105Z,1010.91
2016-06-29T01:04:54.087Z,1010.95
2016-06-29T01:05:54.076Z,1010.91
2016-06-29T01:06:54.061Z,1010.89
2016-06-29T01:07:54.046Z,1010.9
2016-06-29T01:08:54.027Z,1010.93
2016-06-29T01:09:54.014Z,1010.93
2016-06-29T01:10:54.005Z,1010.89
2016-06-29T01:11:53.983Z,1010.89
2016-06-29T01:12:53.971Z,1010.86
2016-06-29T01:13:53.955Z,1010.87
2016-06-29T01:14:53.941Z,1010.9
2016-06-29T01:15:53.923Z,1010.81
2016-06-29T01:16:53.913Z,1010.83
2016-06-29T01:17:53.898Z,1010.89
2016-06-29T01:18:53.882Z,1010.92
2016-06-29T01:19:53.862Z,1010.86
2016-06-29T01:20:53.853Z,1010.83
2016-06-29T01:21:53.846Z,1010.86
2016-06-29T01:22:53.822Z,1010.84
2016-06-29T01:23:53.815Z,1010.79
2016-06-29T01:24:53.799Z,1010.85
2016-06-29T01:25:53.779Z,1010.82
2016-06-29T01:26:53.770Z,1010.76
2016-06-29T01:27:53.754Z,1010.71
2016-06-29T01:28:53.735Z,1010.73
2016-06-29T01:29:53.722Z,1010.68
2016-06-29T01:30:53.710Z,1010.72
2016-06-29T01:31:53.698Z,1010.69
2016-06-29T01:32:53.680Z,1010.65
2016-06-29T01:33:53.670Z,1010.67
2016-06-29T01:34:53.648Z,1010.67
2016-06-29T01:35:53.637Z,1010.71
2016-06-29T01:36:53.642Z,1010.66
2016-06-29T01:37:53.617Z,1010.67
2016-06-29T01:38:53.596Z,1010.71
2016-06-29T01:39:53.593Z,1010.7
2016-06-29T01:40:53.562Z,1010.65
2016-06-29T01:41:53.550Z,1010.73
2016-06-29T01:42:53.540Z,1010.73
2016-06-29T01:43:53.519Z,1010.66
2016-06-29T01:44:53.504Z,1010.67
2016-06-29T01:45:53.495Z,1010.67
2016-06-29T01:46:53.476Z,1010.7
2016-06-29T01:47:53.462Z,1010.58
2016-06-29T01:48:53.450Z,1010.61
2016-06-29T01:49:53.463Z,1010.64
2016-06-29T01:50:53.421Z,1010.67
2016-06-29T01:51:53.416Z,1010.6
2016-06-29T01:52:53.388Z,1010.63
2016-06-29T01:53:53.380Z,1010.6
2016-06-29T01:54:53.364Z,1010.65
2016-06-29T01:55:53.346Z,1010.63
2016-06-29T01:56:53.341Z,1010.68
2016-06-29T01:57:53.320Z,1010.73
2016-06-29T01:58:53.302Z,1010.65
2016-06-29T01:59:53.290Z,1010.72
2016-06-29T02:00:53.277Z,1010.66
2016-06-29T02:01:53.257Z,1010.68
2016-06-29T02:02:53.244Z,1010.76
2016-06-29T02:03:53.236Z,1010.71
2016-06-29T02:04:53.217Z,1010.67
2016-06-29T02:05:53.204Z,1010.66
2016-06-29T02:06:53.192Z,1010.71
2016-06-29T02:07:53.173Z,1010.6
2016-06-29T02:08:53.165Z,1010.58
2016-06-29T02:09:53.146Z,1010.63
2016-06-29T02:10:53.131Z,1010.6
2016-06-29T02:11:53.114Z,1010.59
2016-06-29T02:12:53.106Z,1010.59
2016-06-29T02:13:53.086Z,1010.54
2016-06-29T02:14:53.068Z,1010.58
2016-06-29T02:15:53.058Z,1010.55
2016-06-29T02:16:53.042Z,1010.56
2016-06-29T02:17:53.030Z,1010.57
2016-06-29T02:18:53.024Z,1010.58
2016-06-29T02:19:53.009Z,1010.57
2016-06-29T02:20:52.989Z,1010.53
2016-06-29T02:21:52.990Z,1010.57
2016-06-29T02:22:52.956Z,1010.57
2016-06-29T02:23:52.943Z,1010.57
2016-06-29T02:24:52.927Z,1010.57
2016-06-29T02:25:52.921Z,1010.59
2016-06-29T02:26:52.899Z,1010.55
2016-06-29T02:27:52.891Z,1010.41
2016-06-29T02:28:52.868Z,1010.47
2016-06-29T02:29:52.859Z,1010.66
2016-06-29T02:30:52.841Z,1010.48
2016-06-29T02:31:52.827Z,1010.59
2016-06-29T02:32:52.816Z,1010.5
2016-06-29T02:33:52.802Z,1010.45
2016-06-29T02:34:52.783Z,1010.4
2016-06-29T02:35:52.765Z,1010.49
2016-06-29T02:36:52.754Z,1010.53
2016-06-29T02:37:52.736Z,1010.5
2016-06-29T02:38:52.724Z,1010.48
2016-06-29T02:39:52.714Z,1010.52
2016-06-29T02:40:52.699Z,1010.48
2016-06-29T02:41:52.680Z,1010.54
2016-06-29T02:42:52.669Z,1010.6
2016-06-29T02:43:52.653Z,1010.57
2016-06-29T02:44:52.638Z,1010.55
2016-06-29T02:45:52.624Z,1010.58
2016-06-29T02:46:52.616Z,1010.6
2016-06-29T02:47:52.592Z,1010.55
2016-06-29T02:48:52.585Z,1010.56
2016-06-29T02:49:52.568Z,1010.55
2016-06-29T02:50:52.550Z,1010.58
2016-06-29T02:51:52.541Z,1010.57
2016-06-29T02:52:52.520Z,1010.59
2016-06-29T02:53:52.508Z,1010.64
2016-06-29T02:54:52.496Z,1010.64
2016-06-29T02:55:52.483Z,1010.56
2016-06-29T02:56:52.462Z,1010.68
2016-06-29T02:57:52.451Z,1010.65
2016-06-29T02:58:52.435Z,1010.69
2016-06-29T02:59:52.421Z,1010.65
2016-06-29T03:00:52.410Z,1010.65
2016-06-29T03:01:52.395Z,1010.63
2016-06-29T03:02:52.376Z,1010.62
2016-06-29T03:03:52.363Z,1010.66
2016-06-29T03:04:52.350Z,1010.65
2016-06-29T03:05:52.334Z,1010.69
2016-06-29T03:06:52.329Z,1010.7
2016-06-29T03:07:52.314Z,1010.69
2016-06-29T03:08:52.293Z,1010.61
2016-06-29T03:09:52.282Z,1010.62
2016-06-29T03:10:52.262Z,1010.64
2016-06-29T03:11:52.251Z,1010.63
2016-06-29T03:12:52.234Z,1010.59
2016-06-29T03:13:52.221Z,1010.62
2016-06-29T03:14:52.204Z,1010.65
2016-06-29T03:15:52.192Z,1010.65
2016-06-29T03:16:52.177Z,1010.66
2016-06-29T03:17:52.163Z,1010.68
2016-06-29T03:18:52.153Z,1010.63
2016-06-29T03:19:52.138Z,1010.63
2016-06-29T03:20:52.119Z,1010.66
2016-06-29T03:21:52.112Z,1010.69
2016-06-29T03:22:52.093Z,1010.71
2016-06-29T03:23:52.077Z,1010.69
2016-06-29T03:24:52.065Z,1010.74
2016-06-29T03:25:52.044Z,1010.76
2016-06-29T03:26:52.036Z,1010.84
2016-06-29T03:27:52.021Z,1010.85
2016-06-29T03:28:52.004Z,1010.76
2016-06-29T03:29:51.989Z,1010.78
2016-06-29T03:30:51.974Z,1010.77
2016-06-29T03:31:51.961Z,1010.84
2016-06-29T03:32:51.942Z,1010.83
2016-06-29T03:33:51.931Z,1010.86
2016-06-29T03:34:51.914Z,1010.84
2016-06-29T03:35:51.924Z,1010.91
2016-06-29T03:36:51.912Z,1010.89
2016-06-29T03:37:51.872Z,1010.92
2016-06-29T03:38:51.853Z,1010.95
2016-06-29T03:39:51.849Z,1010.96
2016-06-29T03:40:51.827Z,1010.96
2016-06-29T03:41:51.815Z,1010.92
2016-06-29T03:42:51.800Z,1010.95
2016-06-29T03:43:51.791Z,1010.94
2016-06-29T03:44:51.769Z,1010.94
2016-06-29T03:45:51.760Z,1010.9
2016-06-29T03:46:51.754Z,1010.92
2016-06-29T03:47:51.727Z,1010.87
2016-06-29T03:48:51.715Z,1010.92
2016-06-29T03:49:51.701Z,1010.87
2016-06-29T03:50:51.683Z,1010.86
2016-06-29T03:51:51.674Z,1010.84
2016-06-29T03:52:51.657Z,1010.81
2016-06-29T03:53:51.650Z,1010.8
2016-06-29T03:54:51.626Z,1010.85
2016-06-29T03:55:51.613Z,1010.81
2016-06-29T03:56:51.593Z,1010.8
2016-06-29T03:57:51.584Z,1010.81
2016-06-29T03:58:51.567Z,1010.74
2016-06-29T03:59:51.553Z,1010.79
2016-06-29T04:00:51.538Z,1010.73
2016-06-29T04:01:51.523Z,1010.7
2016-06-29T04:02:51.510Z,1010.75
2016-06-29T04:03:51.491Z,1010.81
2016-06-29T04:04:51.486Z,1010.76
2016-06-29T04:05:51.465Z,1010.72
2016-06-29T04:06:51.453Z,1010.72
2016-06-29T04:07:51.438Z,1010.75
2016-06-29T04:08:51.421Z,1010.72
2016-06-29T04:09:51.408Z,1010.67
2016-06-29T04:10:51.393Z,1010.68
2016-06-29T04:11:51.390Z,1010.71
2016-06-29T04:12:51.365Z,1010.66
2016-06-29T04:13:51.350Z,1010.68
2016-06-29T04:14:51.338Z,1010.61
2016-06-29T04:15:51.321Z,1010.63
2016-06-29T04:16:51.309Z,1010.68
2016-06-29T04:17:51.289Z,1010.63
2016-06-29T04:18:51.274Z,1010.66
2016-06-29T04:19:51.265Z,1010.64
2016-06-29T04:20:51.247Z,1010.65
2016-06-29T04:21:51.236Z,1010.69
2016-06-29T04:22:51.220Z,1010.68
2016-06-29T04:23:51.204Z,1010.6
2016-06-29T04:24:51.190Z,1010.63
2016-06-29T04:25:51.171Z,1010.62
2016-06-29T04:26:51.163Z,1010.61
2016-06-29T04:27:51.142Z,1010.6
2016-06-29T04:28:51.144Z,1010.62
2016-06-29T04:29:51.128Z,1010.6
2016-06-29T04:30:51.095Z,1010.6
2016-06-29T04:31:51.084Z,1010.68
2016-06-29T04:32:51.074Z,1010.69
2016-06-29T04:33:51.056Z,1010.73
2016-06-29T04:34:51.041Z,1010.73
2016-06-29T04:35:51.034Z,1010.75
2016-06-29T04:36:51.015Z,1010.74
2016-06-29T04:37:50.997Z,1010.66
2016-06-29T04:38:50.986Z,1010.72
2016-06-29T04:39:50.971Z,1010.66
2016-06-29T04:40:50.951Z,1010.72
2016-06-29T04:41:50.941Z,1010.69
2016-06-29T04:42:50.924Z,1010.76
2016-06-29T04:43:50.909Z,1010.75
2016-06-29T04:44:50.898Z,1010.67
2016-06-29T04:45:50.884Z,1010.71
2016-06-29T04:46:50.869Z,1010.72
2016-06-29T04:47:50.854Z,1010.72
2016-06-29T04:48:50.839Z,1010.67
2016-06-29T04:49:50.823Z,1010.75
2016-06-29T04:50:50.805Z,1010.74
2016-06-29T04:51:50.797Z,1010.7
2016-06-29T04:52:50.783Z,1010.76
2016-06-29T04:53:50.764Z,1010.74
2016-06-29T04:54:50.752Z,1010.82
2016-06-29T04:55:50.736Z,1010.77
2016-06-29T04:56:50.725Z,1010.82
2016-06-29T04:57:50.706Z,1010.81
2016-06-29T04:58:50.693Z,1010.81
2016-06-29T04:59:50.686Z,1010.8
2016-06-29T05:00:50.670Z,1010.8
2016-06-29T05:01:50.647Z,1010.78
2016-06-29T05:02:50.632Z,1010.8
2016-06-29T05:03:50.622Z,1010.85
2016-06-29T05:04:50.600Z,1010.86
2016-06-29T05:05:50.590Z,1010.87
2016-06-29T05:06:50.580Z,1010.84
2016-06-29T05:07:50.559Z,1010.82
2016-06-29T05:08:50.544Z,1010.83
2016-06-29T05:09:50.539Z,1010.85
2016-06-29T05:10:50.522Z,1010.89
2016-06-29T05:11:50.502Z,1010.88
2016-06-29T05:12:50.483Z,1010.88
2016-06-29T05:13:50.470Z,1010.88
2016-06-29T05:14:50.455Z,1010.85
2016-06-29T05:15:50.442Z,1010.86
2016-06-29T05:16:50.429Z,1010.87
2016-06-29T05:17:50.415Z,1010.91
2016-06-29T05:18:50.398Z,1010.86
2016-06-29T05:19:50.379Z,1010.88
2016-06-29T05:20:50.368Z,1010.82
2016-06-29T05:21:50.357Z,1010.75
2016-06-29T05:22:50.369Z,1010.82
2016-06-29T05:23:50.327Z,1010.8
2016-06-29T05:24:50.311Z,1010.81
2016-06-29T05:25:50.307Z,1010.86
2016-06-29T05:26:50.282Z,1010.92
2016-06-29T05:27:50.266Z,1010.94
2016-06-29T05:28:50.273Z,1010.89
2016-06-29T05:29:50.235Z,1010.91
2016-06-29T05:30:50.242Z,1010.94
2016-06-29T05:31:50.202Z,1010.95
2016-06-29T05:32:50.205Z,1010.9
2016-06-29T05:33:50.179Z,1010.92
2016-06-29T05:34:50.163Z,1010.94
2016-06-29T05:35:50.146Z,1010.99
2016-06-29T05:36:50.134Z,1010.98
2016-06-29T05:37:50.126Z,1010.97
2016-06-29T05:38:50.103Z,1010.95
2016-06-29T05:39:50.093Z,1011.04
2016-06-29T05:40:50.078Z,1010.98
2016-06-29T05:41:50.060Z,1010.98
2016-06-29T05:42:50.044Z,1010.93
2016-06-29T05:43:50.032Z,1011
2016-06-29T05:44:50.018Z,1010.93
2016-06-29T05:45:50.001Z,1010.93
2016-06-29T05:46:49.993Z,1010.95
2016-06-29T05:47:49.970Z,1010.94
2016-06-29T05:48:49.958Z,1010.85
2016-06-29T05:49:49.943Z,1010.89
2016-06-29T05:50:49.925Z,1010.89
2016-06-29T05:51:49.915Z,1010.86
2016-06-29T05:52:49.899Z,1010.87
2016-06-29T05:53:49.880Z,1010.89
2016-06-29T05:54:49.869Z,1010.95
2016-06-29T05:55:49.854Z,1010.86
2016-06-29T05:56:49.837Z,1010.95
2016-06-29T05:57:49.825Z,1010.87
2016-06-29T05:58:49.808Z,1010.94
2016-06-29T05:59:49.808Z,1010.92
2016-06-29T06:00:49.814Z,1010.92
2016-06-29T06:01:49.765Z,1010.94
2016-06-29T06:02:49.751Z,1010.93
2016-06-29T06:03:49.735Z,1010.98
2016-06-29T06:04:49.725Z,1010.98
2016-06-29T06:05:49.705Z,1010.97
2016-06-29T06:06:49.695Z,1010.99
2016-06-29T06:07:49.678Z,1011.01
2016-06-29T06:08:49.667Z,1011.03
2016-06-29T06:09:49.654Z,1011.05
2016-06-29T06:10:49.635Z,1011
2016-06-29T06:11:49.617Z,1010.98
2016-06-29T06:12:49.604Z,1010.96
2016-06-29T06:13:49.589Z,1010.99
2016-06-29T06:14:49.574Z,1010.95
2016-06-29T06:15:49.563Z,1010.91
2016-06-29T06:16:49.547Z,1010.97
2016-06-29T06:17:49.533Z,1010.99
2016-06-29T06:18:49.517Z,1010.9
2016-06-29T06:19:49.503Z,1010.93
2016-06-29T06:20:49.485Z,1010.98
2016-06-29T06:21:49.473Z,1011.01
2016-06-29T06:22:49.458Z,1010.97
2016-06-29T06:23:49.443Z,1011.02
2016-06-29T06:24:49.431Z,1011.04
2016-06-29T06:25:49.418Z,1011.02
2016-06-29T06:26:49.398Z,1010.98
2016-06-29T06:27:49.386Z,1011.13
2016-06-29T06:28:49.365Z,1011.06
2016-06-29T06:29:49.351Z,1011.07
2016-06-29T06:30:49.345Z,1011.07
2016-06-29T06:31:49.329Z,1011.15
2016-06-29T06:32:49.311Z,1011.14
2016-06-29T06:33:49.304Z,1011.15
2016-06-29T06:34:49.286Z,1011.14
2016-06-29T06:35:49.274Z,1011.21
2016-06-29T06:36:49.257Z,1011.11
2016-06-29T06:37:49.239Z,1011.2
2016-06-29T06:38:49.224Z,1011.28
2016-06-29T06:39:49.209Z,1011.15
2016-06-29T06:40:49.198Z,1011.21
2016-06-29T06:41:49.182Z,1011.14
2016-06-29T06:42:49.168Z,1011.15
2016-06-29T06:43:49.155Z,1011.14
2016-06-29T06:44:49.143Z,1011.2
2016-06-29T06:45:49.127Z,1011.17
2016-06-29T06:46:49.139Z,1011.18
2016-06-29T06:47:49.095Z,1011.16
2016-06-29T06:48:49.079Z,1011.12
2016-06-29T06:49:49.066Z,1011.08
2016-06-29T06:50:49.071Z,1011.15
2016-06-29T06:51:49.036Z,1011.14
2016-06-29T06:52:49.022Z,1011.13
2016-06-29T06:53:49.006Z,1011.16
2016-06-29T06:54:48.992Z,1011.11
2016-06-29T06:55:48.980Z,1011.13
2016-06-29T06:56:48.962Z,1011.17
2016-06-29T06:57:48.945Z,1011.13
2016-06-29T06:58:48.933Z,1011.13
2016-06-29T06:59:48.920Z,1011.17
2016-06-29T07:00:48.907Z,1011.13
2016-06-29T07:01:48.889Z,1011.18
2016-06-29T07:02:48.915Z,1011.13
2016-06-29T07:03:48.860Z,1011.09
2016-06-29T07:04:48.849Z,1011.1
2016-06-29T07:05:48.829Z,1011.11
2016-06-29T07:06:48.819Z,1011.16
2016-06-29T07:07:48.814Z,1011.2
2016-06-29T07:08:48.796Z,1011.18
2016-06-29T07:09:48.774Z,1011.27
2016-06-29T07:10:48.761Z,1011.23
2016-06-29T07:11:48.741Z,1011.31
2016-06-29T07:12:48.729Z,1011.42
2016-06-29T07:13:48.717Z,1011.37
2016-06-29T07:14:48.700Z,1011.41
2016-06-29T07:15:48.688Z,1011.46
2016-06-29T07:16:48.681Z,1011.5
2016-06-29T07:17:48.658Z,1011.5
2016-06-29T07:18:48.646Z,1011.53
2016-06-29T07:19:48.631Z,1011.5
2016-06-29T07:20:48.616Z,1011.54
2016-06-29T07:21:48.608Z,1011.57
2016-06-29T07:22:48.587Z,1011.56
2016-06-29T07:23:48.570Z,1011.57
2016-06-29T07:24:48.560Z,1011.58
2016-06-29T07:25:48.548Z,1011.51
2016-06-29T07:26:48.528Z,1011.61
2016-06-29T07:27:48.518Z,1011.6
2016-06-29T07:28:48.502Z,1011.59
2016-06-29T07:29:48.494Z,1011.65
2016-06-29T07:30:48.487Z,1011.6
2016-06-29T07:31:48.460Z,1011.61
2016-06-29T07:32:48.444Z,1011.59
2016-06-29T07:33:48.428Z,1011.65
2016-06-29T07:34:48.411Z,1011.65
2016-06-29T07:35:48.398Z,1011.63
2016-06-29T07:36:48.386Z,1011.65
2016-06-29T07:37:48.373Z,1011.64
2016-06-29T07:38:48.362Z,1011.69
2016-06-29T07:39:48.347Z,1011.69
2016-06-29T07:40:48.327Z,1011.71
2016-06-29T07:41:48.321Z,1011.68
2016-06-29T07:42:48.322Z,1011.69
2016-06-29T07:43:48.290Z,1011.61
2016-06-29T07:44:48.270Z,1011.65
2016-06-29T07:45:48.261Z,1011.63
2016-06-29T07:46:48.244Z,1011.65
2016-06-29T07:47:48.241Z,1011.67
2016-06-29T07:48:48.220Z,1011.67
2016-06-29T07:49:48.201Z,1011.68
2016-06-29T07:50:48.192Z,1011.64
2016-06-29T07:51:48.177Z,1011.63
2016-06-29T07:52:48.160Z,1011.67
2016-06-29T07:53:48.145Z,1011.7
2016-06-29T07:54:48.135Z,1011.74
2016-06-29T07:55:48.127Z,1011.76
2016-06-29T07:56:48.122Z,1011.73
2016-06-29T07:57:48.093Z,1011.75
2016-06-29T07:58:48.081Z,1011.7
2016-06-29T07:59:48.062Z,1011.68
2016-06-29T08:00:48.051Z,1011.71
2016-06-29T08:01:48.037Z,1011.66
2016-06-29T08:02:48.020Z,1011.7
2016-06-29T08:03:48.007Z,1011.74
2016-06-29T08:04:47.992Z,1011.74
2016-06-29T08:05:47.973Z,1011.76
2016-06-29T08:06:47.959Z,1011.75
2016-06-29T08:07:47.948Z,1011.7
2016-06-29T08:08:47.943Z,1011.74
2016-06-29T08:09:47.920Z,1011.72
2016-06-29T08:10:47.901Z,1011.71
2016-06-29T08:11:47.893Z,1011.71
2016-06-29T08:12:47.877Z,1011.71
2016-06-29T08:13:47.862Z,1011.75
2016-06-29T08:14:47.851Z,1011.79
2016-06-29T08:15:47.834Z,1011.73
2016-06-29T08:16:47.826Z,1011.75
2016-06-29T08:17:47.820Z,1011.73
2016-06-29T08:18:47.799Z,1011.73
2016-06-29T08:19:47.787Z,1011.7
2016-06-29T08:20:47.771Z,1011.75
2016-06-29T08:21:47.758Z,1011.76
2016-06-29T08:22:47.743Z,1011.8
2016-06-29T08:23:47.768Z,1011.77
2016-06-29T08:24:47.713Z,1011.79
2016-06-29T08:25:47.706Z,1011.84
2016-06-29T08:26:47.685Z,1011.8
2016-06-29T08:27:47.681Z,1011.79
2016-06-29T08:28:47.656Z,1011.75
2016-06-29T08:29:47.646Z,1011.8
2016-06-29T08:30:47.631Z,1011.76
2016-06-29T08:31:47.611Z,1011.75
2016-06-29T08:32:47.603Z,1011.71
2016-06-29T08:33:47.594Z,1011.75
2016-06-29T08:34:47.573Z,1011.73
2016-06-29T08:35:47.562Z,1011.79
2016-06-29T08:36:47.543Z,1011.74
2016-06-29T08:37:47.536Z,1011.75
2016-06-29T08:38:47.520Z,1011.82
2016-06-29T08:39:47.506Z,1011.81
2016-06-29T08:40:47.491Z,1011.82
2016-06-29T08:41:47.475Z,1011.85
2016-06-29T08:42:47.468Z,1011.84
2016-06-29T08:43:47.444Z,1011.83
2016-06-29T08:44:47.438Z,1011.84
2016-06-29T08:45:47.421Z,1011.81
2016-06-29T08:46:47.406Z,1011.87
2016-06-29T08:47:47.409Z,1011.81
2016-06-29T08:48:47.382Z,1011.88
2016-06-29T08:49:47.372Z,1011.83
2016-06-29T08:50:47.356Z,1011.76
2016-06-29T08:51:47.343Z,1011.83
2016-06-29T08:52:47.327Z,1011.83
2016-06-29T08:53:47.311Z,1011.79
2016-06-29T08:54:47.300Z,1011.76
2016-06-29T08:55:47.288Z,1011.81
2016-06-29T08:56:47.269Z,1011.85
2016-06-29T08:57:47.257Z,1011.82
2016-06-29T08:58:47.246Z,1011.86
2016-06-29T08:59:47.231Z,1011.83
2016-06-29T09:00:47.222Z,1011.93
2016-06-29T09:01:47.206Z,1011.9
2016-06-29T09:02:47.190Z,1011.88
2016-06-29T09:03:47.173Z,1011.91
2016-06-29T09:04:47.165Z,1011.92
2016-06-29T09:05:47.149Z,1011.91
2016-06-29T09:06:47.133Z,1011.91
2016-06-29T09:07:47.122Z,1011.9
2016-06-29T09:08:47.109Z,1011.9
2016-06-29T09:09:47.101Z,1011.94
2016-06-29T09:10:47.079Z,1011.91
2016-06-29T09:11:47.069Z,1011.92
2016-06-29T09:12:47.054Z,1011.91
2016-06-29T09:13:47.041Z,1011.93
2016-06-29T09:14:47.027Z,1011.94
2016-06-29T09:15:47.014Z,1011.93
2016-06-29T09:16:47.002Z,1011.96
2016-06-29T09:17:46.983Z,1012.03
2016-06-29T09:18:46.978Z,1012.05
2016-06-29T09:19:46.959Z,1011.98
2016-06-29T09:20:46.949Z,1011.95
2016-06-29T09:21:46.934Z,1012.02
2016-06-29T09:22:46.918Z,1012.02
2016-06-29T09:23:46.910Z,1012.05
2016-06-29T09:24:46.895Z,1012.09
2016-06-29T09:25:46.886Z,1012.06
2016-06-29T09:26:46.869Z,1012.14
2016-06-29T09:27:46.876Z,1012.11
2016-06-29T09:28:46.839Z,1012.06
2016-06-29T09:29:46.833Z,1012.06
2016-06-29T09:30:46.823Z,1012.14
2016-06-29T09:31:46.800Z,1012.07
2016-06-29T09:32:46.784Z,1012.15
2016-06-29T09:33:46.781Z,1012.2
2016-06-29T09:34:46.762Z,1012.16
2016-06-29T09:35:46.756Z,1012.17
2016-06-29T09:36:46.737Z,1012.18
2016-06-29T09:37:46.725Z,1012.21
2016-06-29T09:38:46.730Z,1012.17
2016-06-29T09:39:46.710Z,1012.13
2016-06-29T09:40:46.681Z,1012.25
2016-06-29T09:41:46.665Z,1012.14
2016-06-29T09:42:46.653Z,1012.25
2016-06-29T09:43:46.640Z,1012.14
2016-06-29T09:44:46.636Z,1012.16
2016-06-29T09:45:46.615Z,1012.17
2016-06-29T09:46:46.599Z,1012.16
2016-06-29T09:47:46.594Z,1012.21
2016-06-29T09:48:46.573Z,1012.19
2016-06-29T09:49:46.565Z,1012.23
2016-06-29T09:50:46.553Z,1012.24
2016-06-29T09:51:46.538Z,1012.3
2016-06-29T09:52:46.521Z,1012.25
2016-06-29T09:53:46.509Z,1012.29
2016-06-29T09:54:46.499Z,1012.25
2016-06-29T09:55:46.479Z,1012.24
2016-06-29T09:56:46.467Z,1012.24
2016-06-29T09:57:46.454Z,1012.23
2016-06-29T09:58:46.442Z,1012.25
2016-06-29T09:59:46.438Z,1012.18
2016-06-29T10:00:46.419Z,1012.25
2016-06-29T10:01:46.422Z,1012.19
2016-06-29T10:02:46.484Z,1012.22
2016-06-29T10:03:46.374Z,1012.25
2016-06-29T10:04:46.361Z,1012.24
2016-06-29T10:05:46.349Z,1012.29
2016-06-29T10:06:46.343Z,1012.29
2016-06-29T10:07:46.319Z,1012.33
2016-06-29T10:08:46.309Z,1012.33
2016-06-29T10:09:46.296Z,1012.34
2016-06-29T10:10:46.285Z,1012.31
2016-06-29T10:11:46.276Z,1012.32
2016-06-29T10:12:46.261Z,1012.29
2016-06-29T10:13:46.266Z,1012.32
2016-06-29T10:14:46.235Z,1012.32
2016-06-29T10:15:46.222Z,1012.31
2016-06-29T10:16:46.211Z,1012.26
2016-06-29T10:17:46.200Z,1012.33
2016-06-29T10:18:46.181Z,1012.32
2016-06-29T10:19:46.179Z,1012.33
2016-06-29T10:20:46.155Z,1012.26
2016-06-29T10:21:46.165Z,1012.29
2016-06-29T10:22:46.125Z,1012.23
2016-06-29T10:23:46.121Z,1012.22
2016-06-29T10:24:46.106Z,1012.18
2016-06-29T10:25:46.094Z,1012.2
2016-06-29T10:26:46.079Z,1012.2
2016-06-29T10:27:46.069Z,1012.23
2016-06-29T10:28:46.053Z,1012.26
2016-06-29T10:29:46.039Z,1012.15
2016-06-29T10:30:46.034Z,1012.18
2016-06-29T10:31:46.024Z,1012.19
2016-06-29T10:32:46.011Z,1012.23
2016-06-29T10:33:45.993Z,1012.18
2016-06-29T10:34:45.988Z,1012.25
2016-06-29T10:35:45.983Z,1012.22
2016-06-29T10:36:45.956Z,1012.2
2016-06-29T10:37:45.949Z,1012.15
2016-06-29T10:38:45.940Z,1012.24
2016-06-29T10:39:45.929Z,1012.2
2016-06-29T10:40:45.914Z,1012.26
2016-06-29T10:41:45.896Z,1012.25
2016-06-29T10:42:45.885Z,1012.26
2016-06-29T10:43:45.873Z,1012.24
2016-06-29T10:44:45.861Z,1012.23
2016-06-29T10:45:45.849Z,1012.26
2016-06-29T10:46:45.840Z,1012.28
2016-06-29T10:47:45.829Z,1012.26
2016-06-29T10:48:45.827Z,1012.28
2016-06-29T10:49:45.801Z,1012.32
2016-06-29T10:50:45.790Z,1012.24
2016-06-29T10:51:45.796Z,1012.23
2016-06-29T10:52:45.773Z,1012.23
2016-06-29T10:53:45.752Z,1012.21
2016-06-29T10:54:45.745Z,1012.15
2016-06-29T10:55:45.729Z,1012.32
2016-06-29T10:56:45.717Z,1012.22
2016-06-29T10:57:45.711Z,1012.19
2016-06-29T10:58:45.698Z,1012.22
2016-06-29T10:59:45.685Z,1012.29
2016-06-29T11:00:45.677Z,1012.23
2016-06-29T11:01:45.664Z,1012.22
2016-06-29T11:02:45.659Z,1012.3
2016-06-29T11:03:45.643Z,1012.22
2016-06-29T11:04:45.629Z,1012.24
2016-06-29T11:05:45.621Z,1012.27
2016-06-29T11:06:45.609Z,1012.24
2016-06-29T11:07:45.602Z,1012.31
2016-06-29T11:08:45.586Z,1012.29
2016-06-29T11:09:45.577Z,1012.23
2016-06-29T11:10:45.567Z,1012.15
2016-06-29T11:11:45.553Z,1012.22
2016-06-29T11:12:45.542Z,1012.19
2016-06-29T11:13:45.534Z,1012.26
2016-06-29T11:14:45.520Z,1012.21
2016-06-29T11:15:45.508Z,1012.13
2016-06-29T11:16:45.494Z,1012.21
2016-06-29T11:17:45.487Z,1012.19
2016-06-29T11:18:45.476Z,1012.2
2016-06-29T11:19:45.470Z,1012.19
2016-06-29T11:20:45.452Z,1012.22
2016-06-29T11:21:45.448Z,1012.2
2016-06-29T11:22:45.426Z,1012.16
2016-06-29T11:23:45.422Z,1012.12
2016-06-29T11:24:45.408Z,1012.23
2016-06-29T11:25:45.398Z,1012.15
2016-06-29T11:26:45.390Z,1012.21
2016-06-29T11:27:45.377Z,1012.15
2016-06-29T11:28:45.363Z,1012.12
2016-06-29T11:29:45.354Z,1012.27
2016-06-29T11:30:45.339Z,1012.2
2016-06-29T11:31:45.325Z,1012.16
2016-06-29T11:32:45.325Z,1012.13
2016-06-29T11:33:45.315Z,1012.2
2016-06-29T11:34:45.301Z,1012.31
2016-06-29T11:35:45.286Z,1012.46
2016-06-29T11:36:45.278Z,1012.62
2016-06-29T11:37:45.272Z,1012.49
2016-06-29T11:38:45.256Z,1012.41
2016-06-29T11:39:45.250Z,1012.37
2016-06-29T11:40:45.238Z,1012.37
2016-06-29T11:41:45.241Z,1012.41
2016-06-29T11:42:45.226Z,1012.5
2016-06-29T11:43:45.223Z,1012.4
2016-06-29T11:44:45.220Z,1012.42
2016-06-29T11:45:45.212Z,1012.48
2016-06-29T11:46:45.202Z,1012.44
2016-06-29T11:47:45.200Z,1012.38
2016-06-29T11:48:45.198Z,1012.38
2016-06-29T11:49:45.195Z,1012.4
2016-06-29T11:50:45.188Z,1012.35
2016-06-29T11:51:45.179Z,1012.35
2016-06-29T11:52:45.174Z,1012.49
2016-06-29T11:53:45.164Z,1012.49
2016-06-29T11:54:45.165Z,1012.45
2016-06-29T11:55:45.161Z,1012.35
2016-06-29T11:56:45.224Z,1012.33
2016-06-29T11:57:45.169Z,1012.4
2016-06-29T11:58:45.146Z,1012.44
2016-06-29T11:59:45.150Z,1012.39
2016-06-29T12:00:45.143Z,1012.44
2016-06-29T12:01:45.145Z,1012.38
2016-06-29T12:02:45.141Z,1012.45
2016-06-29T12:03:45.139Z,1012.42
2016-06-29T12:04:45.130Z,1012.5
2016-06-29T12:05:45.131Z,1012.37
2016-06-29T12:06:45.134Z,1012.4
2016-06-29T12:07:45.170Z,1012.43
2016-06-29T12:08:45.125Z,1012.42